sensor_id;sensor_type;location;lat;lon;timestamp;pressure;altitude;pressure_sealevel;temperature;humidity
9141;BME280;46330;50.822;7.126;2024-01-06T00:00:29;99642.34;;;6.58;100.00
9141;BME280;46330;50.822;7.126;2024-01-06T00:02:57;99637.13;;;6.60;100.00
9141;BME280;46330;50.822;7.126;2024-01-06T00:05:25;99639.91;;;6.51;100.00
9141;BME280;46330;50.822;7.126;2024-01-06T00:07:53;99642.47;;;6.52;100.00
9141;BME280;46330;50.822;7.126;2024-01-06T00:10:21;99640.72;;;6.53;100.00
9141;BME280;46330;50.822;7.126;2024-01-06T00:12:51;99644.19;;;6.53;100.00
9141;BME280;46330;50.822;7.126;2024-01-06T00:15:18;99645.00;;;6.57;100.00
9141;BME280;46330;50.822;7.126;2024-01-06T00:17:46;99654.53;;;6.55;100.00
9141;BME280;46330;50.822;7.126;2024-01-06T00:20:14;99644.13;;;6.56;100.00
9141;BME280;46330;50.822;7.126;2024-01-06T00:22:42;99647.66;;;6.52;100.00
9141;BME280;46330;50.822;7.126;2024-01-06T00:25:11;99656.28;;;6.54;100.00
9141;BME280;46330;50.822;7.126;2024-01-06T00:27:39;99659.78;;;6.52;100.00
9141;BME280;46330;50.822;7.126;2024-01-06T00:30:08;99649.41;;;6.52;100.00
9141;BME280;46330;50.822;7.126;2024-01-06T00:32:37;99654.56;;;6.53;100.00
9141;BME280;46330;50.822;7.126;2024-01-06T00:35:05;99648.47;;;6.54;100.00
9141;BME280;46330;50.822;7.126;2024-01-06T00:37:33;99651.88;;;6.58;100.00
9141;BME280;46330;50.822;7.126;2024-01-06T00:40:01;99655.44;;;6.54;100.00
9141;BME280;46330;50.822;7.126;2024-01-06T00:42:30;99652.84;;;6.52;100.00
9141;BME280;46330;50.822;7.126;2024-01-06T00:44:58;99645.94;;;6.51;100.00
9141;BME280;46330;50.822;7.126;2024-01-06T00:47:28;99652.78;;;6.55;100.00
9141;BME280;46330;50.822;7.126;2024-01-06T00:49:56;99657.06;;;6.58;100.00
9141;BME280;46330;50.822;7.126;2024-01-06T00:52:24;99659.66;;;6.59;100.00
9141;BME280;46330;50.822;7.126;2024-01-06T00:54:52;99655.34;;;6.58;100.00
9141;BME280;46330;50.822;7.126;2024-01-06T00:57:20;99652.66;;;6.63;100.00
9141;BME280;46330;50.822;7.126;2024-01-06T00:59:51;99660.41;;;6.66;100.00
9141;BME280;46330;50.822;7.126;2024-01-06T01:02:18;99644.88;;;6.63;100.00
9141;BME280;46330;50.822;7.126;2024-01-06T01:04:48;99657.19;;;6.53;100.00
9141;BME280;46330;50.822;7.126;2024-01-06T01:07:16;99649.31;;;6.56;100.00
9141;BME280;46330;50.822;7.126;2024-01-06T01:09:44;99654.56;;;6.53;100.00
9141;BME280;46330;50.822;7.126;2024-01-06T01:12:12;99657.38;;;6.42;100.00
9141;BME280;46330;50.822;7.126;2024-01-06T01:14:40;99659.19;;;6.37;100.00
9141;BME280;46330;50.822;7.126;2024-01-06T01:17:08;99662.84;;;6.26;100.00
9141;BME280;46330;50.822;7.126;2024-01-06T01:19:35;99665.50;;;6.24;100.00
9141;BME280;46330;50.822;7.126;2024-01-06T01:22:05;99663.94;;;6.14;100.00
9141;BME280;46330;50.822;7.126;2024-01-06T01:24:33;99665.69;;;6.12;100.00
9141;BME280;46330;50.822;7.126;2024-01-06T01:27:01;99665.66;;;6.15;100.00
9141;BME280;46330;50.822;7.126;2024-01-06T01:29:29;99673.50;;;6.12;100.00
9141;BME280;46330;50.822;7.126;2024-01-06T01:31:57;99667.50;;;6.09;100.00
9141;BME280;46330;50.822;7.126;2024-01-06T01:34:25;99669.13;;;6.14;100.00
9141;BME280;46330;50.822;7.126;2024-01-06T01:36:53;99672.50;;;6.19;100.00
9141;BME280;46330;50.822;7.126;2024-01-06T01:39:22;99672.47;;;6.21;100.00
9141;BME280;46330;50.822;7.126;2024-01-06T01:41:50;99677.75;;;6.15;100.00
9141;BME280;46330;50.822;7.126;2024-01-06T01:44:18;99669.09;;;6.16;100.00
9141;BME280;46330;50.822;7.126;2024-01-06T01:46:46;99680.31;;;6.18;100.00
9141;BME280;46330;50.822;7.126;2024-01-06T01:49:14;99681.06;;;6.24;100.00
9141;BME280;46330;50.822;7.126;2024-01-06T01:51:42;99688.81;;;6.26;100.00
9141;BME280;46330;50.822;7.126;2024-01-06T01:54:11;99693.06;;;6.30;100.00
9141;BME280;46330;50.822;7.126;2024-01-06T01:56:41;99693.94;;;6.30;100.00
9141;BME280;46330;50.822;7.126;2024-01-06T01:59:11;99698.31;;;6.28;100.00
9141;BME280;46330;50.822;7.126;2024-01-06T02:01:39;99693.13;;;6.28;100.00
9141;BME280;46330;50.822;7.126;2024-01-06T02:04:08;99697.47;;;6.26;100.00
9141;BME280;46330;50.822;7.126;2024-01-06T02:06:36;99700.06;;;6.28;100.00
9141;BME280;46330;50.822;7.126;2024-01-06T02:09:04;99698.38;;;6.25;100.00
9141;BME280;46330;50.822;7.126;2024-01-06T02:11:32;99689.69;;;6.26;100.00
9141;BME280;46330;50.822;7.126;2024-01-06T02:14:01;99699.94;;;6.32;100.00
9141;BME280;46330;50.822;7.126;2024-01-06T02:16:29;99694.81;;;6.29;100.00
9141;BME280;46330;50.822;7.126;2024-01-06T02:18:57;99700.88;;;6.30;100.00
9141;BME280;46330;50.822;7.126;2024-01-06T02:21:27;99703.41;;;6.34;100.00
9141;BME280;46330;50.822;7.126;2024-01-06T02:23:56;99705.13;;;6.34;100.00
9141;BME280;46330;50.822;7.126;2024-01-06T02:26:24;99703.41;;;6.34;100.00
9141;BME280;46330;50.822;7.126;2024-01-06T02:28:52;99701.03;;;6.22;100.00
9141;BME280;46330;50.822;7.126;2024-01-06T02:31:20;99695.72;;;6.27;100.00
9141;BME280;46330;50.822;7.126;2024-01-06T02:33:48;99705.25;;;6.28;100.00
9141;BME280;46330;50.822;7.126;2024-01-06T02:36:16;99717.31;;;6.30;100.00
9141;BME280;46330;50.822;7.126;2024-01-06T02:38:44;99716.44;;;6.30;100.00
9141;BME280;46330;50.822;7.126;2024-01-06T02:41:13;99718.22;;;6.28;100.00
9141;BME280;46330;50.822;7.126;2024-01-06T02:43:41;99722.56;;;6.26;100.00
9141;BME280;46330;50.822;7.126;2024-01-06T02:46:09;99722.56;;;6.26;100.00
9141;BME280;46330;50.822;7.126;2024-01-06T02:48:37;99724.34;;;6.24;100.00
9141;BME280;46330;50.822;7.126;2024-01-06T02:51:05;99725.22;;;6.23;100.00
9141;BME280;46330;50.822;7.126;2024-01-06T02:53:33;99738.25;;;6.21;100.00
9141;BME280;46330;50.822;7.126;2024-01-06T02:56:01;99733.00;;;6.24;100.00
9141;BME280;46330;50.822;7.126;2024-01-06T02:58:30;99738.25;;;6.21;100.00
9141;BME280;46330;50.822;7.126;2024-01-06T03:00:58;99744.31;;;6.20;100.00
9141;BME280;46330;50.822;7.126;2024-01-06T03:03:26;99753.00;;;6.19;100.00
9141;BME280;46330;50.822;7.126;2024-01-06T03:05:54;99746.03;;;6.21;100.00
9141;BME280;46330;50.822;7.126;2024-01-06T03:08:22;99756.38;;;6.24;100.00
9141;BME280;46330;50.822;7.126;2024-01-06T03:10:50;99759.81;;;6.25;100.00
9141;BME280;46330;50.822;7.126;2024-01-06T03:13:18;99771.13;;;6.21;100.00
9141;BME280;46330;50.822;7.126;2024-01-06T03:15:47;99764.16;;;6.24;100.00
9141;BME280;46330;50.822;7.126;2024-01-06T03:18:15;99761.56;;;6.23;100.00
9141;BME280;46330;50.822;7.126;2024-01-06T03:20:43;99772.81;;;6.23;100.00
9141;BME280;46330;50.822;7.126;2024-01-06T03:23:11;99763.38;;;6.19;100.00
9141;BME280;46330;50.822;7.126;2024-01-06T03:25:39;99765.13;;;6.17;100.00
9141;BME280;46330;50.822;7.126;2024-01-06T03:28:07;99770.25;;;6.20;100.00
9141;BME280;46330;50.822;7.126;2024-01-06T03:30:35;99783.34;;;6.16;100.00
9141;BME280;46330;50.822;7.126;2024-01-06T03:33:05;99773.81;;;6.16;100.00
9141;BME280;46330;50.822;7.126;2024-01-06T03:35:33;99770.31;;;6.19;100.00
9141;BME280;46330;50.822;7.126;2024-01-06T03:38:01;99778.16;;;6.14;100.00
9141;BME280;46330;50.822;7.126;2024-01-06T03:40:29;99762.56;;;6.14;100.00
9141;BME280;46330;50.822;7.126;2024-01-06T03:42:57;99772.91;;;6.17;100.00
9141;BME280;46330;50.822;7.126;2024-01-06T03:45:26;99764.25;;;6.17;100.00
9141;BME280;46330;50.822;7.126;2024-01-06T03:47:54;99767.81;;;6.13;100.00
9141;BME280;46330;50.822;7.126;2024-01-06T03:50:24;99767.75;;;6.14;100.00
9141;BME280;46330;50.822;7.126;2024-01-06T03:52:51;99766.91;;;6.15;100.00
9141;BME280;46330;50.822;7.126;2024-01-06T03:55:19;99771.19;;;6.18;100.00
9141;BME280;46330;50.822;7.126;2024-01-06T03:57:47;99778.09;;;6.19;100.00
9141;BME280;46330;50.822;7.126;2024-01-06T04:00:16;99769.44;;;6.17;100.00
9141;BME280;46330;50.822;7.126;2024-01-06T04:02:44;99780.75;;;6.16;100.00
9141;BME280;46330;50.822;7.126;2024-01-06T04:05:12;99785.94;;;6.16;100.00
9141;BME280;46330;50.822;7.126;2024-01-06T04:07:42;99786.78;;;6.16;100.00
9141;BME280;46330;50.822;7.126;2024-01-06T04:10:09;99792.81;;;6.17;100.00
9141;BME280;46330;50.822;7.126;2024-01-06T04:12:37;99791.91;;;6.21;100.00
9141;BME280;46330;50.822;7.126;2024-01-06T04:15:06;99790.16;;;6.20;100.00
9141;BME280;46330;50.822;7.126;2024-01-06T04:17:34;99788.38;;;6.23;100.00
9141;BME280;46330;50.822;7.126;2024-01-06T04:20:02;99788.38;;;6.23;100.00
9141;BME280;46330;50.822;7.126;2024-01-06T04:22:30;99795.31;;;6.24;100.00
9141;BME280;46330;50.822;7.126;2024-01-06T04:24:59;99791.00;;;6.23;100.00
9141;BME280;46330;50.822;7.126;2024-01-06T04:27:27;99792.72;;;6.24;100.00
9141;BME280;46330;50.822;7.126;2024-01-06T04:29:55;99808.25;;;6.27;100.00
9141;BME280;46330;50.822;7.126;2024-01-06T04:32:23;99792.66;;;6.29;100.00
9141;BME280;46330;50.822;7.126;2024-01-06T04:34:51;99794.34;;;6.30;100.00
9141;BME280;46330;50.822;7.126;2024-01-06T04:37:19;99796.06;;;6.31;100.00
9141;BME280;46330;50.822;7.126;2024-01-06T04:39:47;99805.59;;;6.32;100.00
9141;BME280;46330;50.822;7.126;2024-01-06T04:42:16;99801.28;;;6.31;100.00
9141;BME280;46330;50.822;7.126;2024-01-06T04:44:46;99799.53;;;6.30;100.00
9141;BME280;46330;50.822;7.126;2024-01-06T04:47:14;99798.66;;;6.31;100.00
9141;BME280;46330;50.822;7.126;2024-01-06T04:49:42;99794.31;;;6.33;100.00
9141;BME280;46330;50.822;7.126;2024-01-06T04:52:10;99794.28;;;6.34;100.00
9141;BME280;46330;50.822;7.126;2024-01-06T04:54:38;99795.13;;;6.36;100.00
9141;BME280;46330;50.822;7.126;2024-01-06T04:57:06;99796.91;;;6.33;100.00
9141;BME280;46330;50.822;7.126;2024-01-06T04:59:35;99803.88;;;6.31;100.00
9141;BME280;46330;50.822;7.126;2024-01-06T05:02:03;99802.97;;;6.33;100.00
9141;BME280;46330;50.822;7.126;2024-01-06T05:04:31;99799.44;;;6.36;100.00
9141;BME280;46330;50.822;7.126;2024-01-06T05:06:59;99810.75;;;6.33;100.00
9141;BME280;46330;50.822;7.126;2024-01-06T05:09:27;99806.50;;;6.28;100.00
9141;BME280;46330;50.822;7.126;2024-01-06T05:11:55;99801.28;;;6.31;100.00
9141;BME280;46330;50.822;7.126;2024-01-06T05:14:23;99794.34;;;6.31;100.00
9141;BME280;46330;50.822;7.126;2024-01-06T05:16:52;99800.34;;;6.33;100.00
9141;BME280;46330;50.822;7.126;2024-01-06T05:19:20;99809.84;;;6.36;100.00
9141;BME280;46330;50.822;7.126;2024-01-06T05:21:48;99811.66;;;6.31;100.00
9141;BME280;46330;50.822;7.126;2024-01-06T05:24:17;99816.81;;;6.32;100.00
9141;BME280;46330;50.822;7.126;2024-01-06T05:26:45;99818.53;;;6.33;100.00
9141;BME280;46330;50.822;7.126;2024-01-06T05:29:13;99816.00;;;6.30;100.00
9141;BME280;46330;50.822;7.126;2024-01-06T05:31:41;99823.72;;;6.33;100.00
9141;BME280;46330;50.822;7.126;2024-01-06T05:34:10;99820.25;;;6.34;100.00
9141;BME280;46330;50.822;7.126;2024-01-06T05:36:38;99821.97;;;6.35;100.00
9141;BME280;46330;50.822;7.126;2024-01-06T05:39:06;99815.06;;;6.34;100.00
9141;BME280;46330;50.822;7.126;2024-01-06T05:41:37;99822.81;;;6.36;100.00
9141;BME280;46330;50.822;7.126;2024-01-06T05:44:06;99815.03;;;6.37;100.00
9141;BME280;46330;50.822;7.126;2024-01-06T05:46:34;99820.22;;;6.36;100.00
9141;BME280;46330;50.822;7.126;2024-01-06T05:49:02;99824.56;;;6.35;100.00
9141;BME280;46330;50.822;7.126;2024-01-06T05:51:32;99823.78;;;6.32;100.00
9141;BME280;46330;50.822;7.126;2024-01-06T05:54:00;99825.47;;;6.34;100.00
9141;BME280;46330;50.822;7.126;2024-01-06T05:56:29;99828.94;;;6.33;100.00
9141;BME280;46330;50.822;7.126;2024-01-06T05:58:57;99833.25;;;6.34;100.00
9141;BME280;46330;50.822;7.126;2024-01-06T06:01:24;99839.31;;;6.33;100.00
9141;BME280;46330;50.822;7.126;2024-01-06T06:03:52;99836.72;;;6.33;100.00
9141;BME280;46330;50.822;7.126;2024-01-06T06:06:20;99847.97;;;6.32;100.00
9141;BME280;46330;50.822;7.126;2024-01-06T06:08:50;99857.53;;;6.32;100.00
9141;BME280;46330;50.822;7.126;2024-01-06T06:11:18;99862.81;;;6.24;100.00
9141;BME280;46330;50.822;7.126;2024-01-06T06:13:46;99874.06;;;6.25;100.00
9141;BME280;46330;50.822;7.126;2024-01-06T06:16:13;99877.78;;;6.04;100.00
9141;BME280;46330;50.822;7.126;2024-01-06T06:18:41;99879.97;;;5.67;100.00
9141;BME280;46330;50.822;7.126;2024-01-06T06:21:09;99891.16;;;5.71;100.00
9141;BME280;46330;50.822;7.126;2024-01-06T06:23:37;99892.22;;;5.56;100.00
9141;BME280;46330;50.822;7.126;2024-01-06T06:26:07;99903.44;;;5.57;100.00
9141;BME280;46330;50.822;7.126;2024-01-06T06:28:35;99904.44;;;5.43;100.00
9141;BME280;46330;50.822;7.126;2024-01-06T06:31:03;99904.50;;;5.37;100.00
9141;BME280;46330;50.822;7.126;2024-01-06T06:33:31;99913.19;;;5.35;100.00
9141;BME280;46330;50.822;7.126;2024-01-06T06:36:01;99901.91;;;5.37;100.00
9141;BME280;46330;50.822;7.126;2024-01-06T06:38:29;99914.94;;;5.31;100.00
9141;BME280;46330;50.822;7.126;2024-01-06T06:40:57;99923.59;;;5.32;100.00
9141;BME280;46330;50.822;7.126;2024-01-06T06:43:26;99924.44;;;5.29;100.00
9141;BME280;46330;50.822;7.126;2024-01-06T06:45:54;99921.03;;;5.27;100.00
9141;BME280;46330;50.822;7.126;2024-01-06T06:48:23;99939.19;;;5.27;100.00
9141;BME280;46330;50.822;7.126;2024-01-06T06:50:51;99946.13;;;5.25;100.00
9141;BME280;46330;50.822;7.126;2024-01-06T06:53:19;99945.31;;;5.19;100.00
9141;BME280;46330;50.822;7.126;2024-01-06T06:55:47;99947.84;;;5.23;100.00
9141;BME280;46330;50.822;7.126;2024-01-06T06:58:14;99949.63;;;5.20;100.00
9141;BME280;46330;50.822;7.126;2024-01-06T07:00:44;99959.22;;;5.10;100.00
9141;BME280;46330;50.822;7.126;2024-01-06T07:03:11;99959.25;;;5.06;100.00
9141;BME280;46330;50.822;7.126;2024-01-06T07:05:40;99963.56;;;5.07;100.00
9141;BME280;46330;50.822;7.126;2024-01-06T07:08:08;99973.06;;;5.05;100.00
9141;BME280;46330;50.822;7.126;2024-01-06T07:10:36;99976.50;;;5.07;100.00
9141;BME280;46330;50.822;7.126;2024-01-06T07:13:04;99980.88;;;4.99;100.00
9141;BME280;46330;50.822;7.126;2024-01-06T07:15:32;99980.00;;;4.98;100.00
9141;BME280;46330;50.822;7.126;2024-01-06T07:18:02;99995.59;;;4.97;100.00
9141;BME280;46330;50.822;7.126;2024-01-06T07:20:30;100000.75;;;4.95;100.00
9141;BME280;46330;50.822;7.126;2024-01-06T07:22:58;99999.09;;;4.86;100.00
9141;BME280;46330;50.822;7.126;2024-01-06T07:25:26;99995.66;;;4.83;100.00
9141;BME280;46330;50.822;7.126;2024-01-06T07:27:54;100000.00;;;4.79;100.00
9141;BME280;46330;50.822;7.126;2024-01-06T07:30:22;100006.06;;;4.80;100.00
9141;BME280;46330;50.822;7.126;2024-01-06T07:32:50;100015.53;;;4.85;100.00
9141;BME280;46330;50.822;7.126;2024-01-06T07:35:20;100018.09;;;4.87;100.00
9141;BME280;46330;50.822;7.126;2024-01-06T07:37:48;100014.66;;;4.88;100.00
9141;BME280;46330;50.822;7.126;2024-01-06T07:40:16;100027.59;;;4.89;100.00
9141;BME280;46330;50.822;7.126;2024-01-06T07:42:44;100030.19;;;4.91;100.00
9141;BME280;46330;50.822;7.126;2024-01-06T07:45:11;100035.31;;;4.96;100.00
9141;BME280;46330;50.822;7.126;2024-01-06T07:47:40;100042.22;;;4.98;100.00
9141;BME280;46330;50.822;7.126;2024-01-06T07:50:09;100043.97;;;4.98;100.00
9141;BME280;46330;50.822;7.126;2024-01-06T07:52:38;100054.31;;;4.96;100.00
9141;BME280;46330;50.822;7.126;2024-01-06T07:55:07;100051.72;;;4.99;100.00
9141;BME280;46330;50.822;7.126;2024-01-06T07:57:34;100048.25;;;5.03;100.00
9141;BME280;46330;50.822;7.126;2024-01-06T08:00:03;100068.13;;;5.04;100.00
9141;BME280;46330;50.822;7.126;2024-01-06T08:02:38;100066.34;;;5.06;100.00
9141;BME280;46330;50.822;7.126;2024-01-06T08:05:06;100070.69;;;5.06;100.00
9141;BME280;46330;50.822;7.126;2024-01-06T08:07:34;100085.34;;;5.10;100.00
9141;BME280;46330;50.822;7.126;2024-01-06T08:10:04;100087.91;;;5.14;100.00
9141;BME280;46330;50.822;7.126;2024-01-06T08:12:33;100084.50;;;5.06;100.00
9141;BME280;46330;50.822;7.126;2024-01-06T08:15:01;100087.13;;;5.03;100.00
9141;BME280;46330;50.822;7.126;2024-01-06T08:17:29;100108.69;;;5.02;100.00
9141;BME280;46330;50.822;7.126;2024-01-06T08:19:57;100105.22;;;5.05;100.00
9141;BME280;46330;50.822;7.126;2024-01-06T08:22:25;100117.31;;;5.09;100.00
9141;BME280;46330;50.822;7.126;2024-01-06T08:24:53;100116.47;;;5.07;100.00
9141;BME280;46330;50.822;7.126;2024-01-06T08:27:22;100124.22;;;5.08;100.00
9141;BME280;46330;50.822;7.126;2024-01-06T08:29:51;100117.31;;;5.10;100.00
9141;BME280;46330;50.822;7.126;2024-01-06T08:32:19;100122.50;;;5.10;100.00
9141;BME280;46330;50.822;7.126;2024-01-06T08:34:47;100128.53;;;5.09;100.00
9141;BME280;46330;50.822;7.126;2024-01-06T08:37:15;100123.38;;;5.05;100.00
9141;BME280;46330;50.822;7.126;2024-01-06T08:39:42;100124.19;;;5.11;100.00
9141;BME280;46330;50.822;7.126;2024-01-06T08:42:10;100131.97;;;5.13;100.00
9141;BME280;46330;50.822;7.126;2024-01-06T08:44:39;100139.78;;;5.08;100.00
9141;BME280;46330;50.822;7.126;2024-01-06T08:47:07;100143.28;;;5.04;100.00
9141;BME280;46330;50.822;7.126;2024-01-06T08:49:35;100146.75;;;4.96;100.00
9141;BME280;46330;50.822;7.126;2024-01-06T08:52:04;100143.34;;;4.87;100.00
9141;BME280;46330;50.822;7.126;2024-01-06T08:54:32;100149.34;;;4.93;100.00
9141;BME280;46330;50.822;7.126;2024-01-06T08:57:01;100164.03;;;4.97;100.00
9141;BME280;46330;50.822;7.126;2024-01-06T08:59:29;100157.97;;;4.98;100.00
9141;BME280;46330;50.822;7.126;2024-01-06T09:01:58;100160.63;;;4.88;100.00
9141;BME280;46330;50.822;7.126;2024-01-06T09:04:26;100167.47;;;4.99;100.00
9141;BME280;46330;50.822;7.126;2024-01-06T09:06:54;100167.47;;;4.99;100.00
9141;BME280;46330;50.822;7.126;2024-01-06T09:09:22;100169.19;;;5.03;100.00
9141;BME280;46330;50.822;7.126;2024-01-06T09:11:50;100166.59;;;4.98;100.00
9141;BME280;46330;50.822;7.126;2024-01-06T09:14:19;100169.19;;;4.98;100.00
9141;BME280;46330;50.822;7.126;2024-01-06T09:16:47;100173.53;;;4.98;100.00
9141;BME280;46330;50.822;7.126;2024-01-06T09:19:16;100180.41;;;5.03;100.00
9141;BME280;46330;50.822;7.126;2024-01-06T09:21:44;100179.56;;;5.04;100.00
9141;BME280;46330;50.822;7.126;2024-01-06T09:24:12;100184.75;;;5.04;100.00
9141;BME280;46330;50.822;7.126;2024-01-06T09:26:40;100188.19;;;5.02;100.00
9141;BME280;46330;50.822;7.126;2024-01-06T09:29:08;100194.22;;;5.07;100.00
9141;BME280;46330;50.822;7.126;2024-01-06T09:31:38;100198.53;;;5.02;100.00
9141;BME280;46330;50.822;7.126;2024-01-06T09:34:09;100201.09;;;5.11;100.00
9141;BME280;46330;50.822;7.126;2024-01-06T09:36:38;100206.31;;;5.02;100.00
9141;BME280;46330;50.822;7.126;2024-01-06T09:39:10;100208.06;;;5.04;100.00
9141;BME280;46330;50.822;7.126;2024-01-06T09:41:38;100206.34;;;4.96;100.00
9141;BME280;46330;50.822;7.126;2024-01-06T09:44:06;100203.75;;;4.96;100.00
9141;BME280;46330;50.822;7.126;2024-01-06T09:46:34;100215.81;;;5.03;100.00
9141;BME280;46330;50.822;7.126;2024-01-06T09:49:03;100224.44;;;5.05;100.00
9141;BME280;46330;50.822;7.126;2024-01-06T09:51:36;100221.03;;;4.97;100.00
9141;BME280;46330;50.822;7.126;2024-01-06T09:54:09;100230.56;;;4.92;100.00
9141;BME280;46330;50.822;7.126;2024-01-06T09:56:38;100221.88;;;5.00;100.00
9141;BME280;46330;50.822;7.126;2024-01-06T09:59:06;100231.38;;;5.04;100.00
9141;BME280;46330;50.822;7.126;2024-01-06T10:01:34;100234.81;;;5.02;100.00
9141;BME280;46330;50.822;7.126;2024-01-06T10:04:03;100234.78;;;5.14;100.00
9141;BME280;46330;50.822;7.126;2024-01-06T10:06:31;100227.03;;;5.17;100.00
9141;BME280;46330;50.822;7.126;2024-01-06T10:08:59;100243.41;;;5.14;100.00
9141;BME280;46330;50.822;7.126;2024-01-06T10:11:29;100238.22;;;5.14;100.00
9141;BME280;46330;50.822;7.126;2024-01-06T10:13:56;100241.66;;;5.21;100.00
9141;BME280;46330;50.822;7.126;2024-01-06T10:16:24;100247.72;;;5.21;100.00
9141;BME280;46330;50.822;7.126;2024-01-06T10:18:53;100245.97;;;5.25;100.00
9141;BME280;46330;50.822;7.126;2024-01-06T10:21:21;100245.09;;;5.27;100.00
9141;BME280;46330;50.822;7.126;2024-01-06T10:23:50;100247.75;;;5.20;100.00
9141;BME280;46330;50.822;7.126;2024-01-06T10:26:18;100239.13;;;5.09;100.00
9141;BME280;46330;50.822;7.126;2024-01-06T10:28:48;100243.41;;;5.22;100.00
9141;BME280;46330;50.822;7.126;2024-01-06T10:31:17;100248.63;;;5.16;100.00
9141;BME280;46330;50.822;7.126;2024-01-06T10:33:46;100247.78;;;5.05;100.00
9141;BME280;46330;50.822;7.126;2024-01-06T10:36:15;100251.25;;;5.07;100.00
9141;BME280;46330;50.822;7.126;2024-01-06T10:38:44;100263.34;;;5.02;100.00
9141;BME280;46330;50.822;7.126;2024-01-06T10:41:12;100258.16;;;4.96;100.00
9141;BME280;46330;50.822;7.126;2024-01-06T10:43:42;100254.69;;;4.98;100.00
9141;BME280;46330;50.822;7.126;2024-01-06T10:46:12;100259.91;;;4.95;100.00
9141;BME280;46330;50.822;7.126;2024-01-06T10:48:42;100261.63;;;4.93;100.00
9141;BME280;46330;50.822;7.126;2024-01-06T10:51:12;100260.78;;;4.93;100.00
9141;BME280;46330;50.822;7.126;2024-01-06T10:53:42;100266.81;;;5.01;100.00
9141;BME280;46330;50.822;7.126;2024-01-06T10:56:10;100264.22;;;5.01;100.00
9141;BME280;46330;50.822;7.126;2024-01-06T10:58:45;100263.31;;;5.05;100.00
9141;BME280;46330;50.822;7.126;2024-01-06T11:01:16;100268.50;;;5.09;100.00
9141;BME280;46330;50.822;7.126;2024-01-06T11:03:48;100260.72;;;5.17;100.00
9141;BME280;46330;50.822;7.126;2024-01-06T11:06:17;100263.34;;;5.06;100.00
9141;BME280;46330;50.822;7.126;2024-01-06T11:08:51;100268.50;;;5.06;100.00
9141;BME280;46330;50.822;7.126;2024-01-06T11:11:21;100265.03;;;5.16;100.00
9141;BME280;46330;50.822;7.126;2024-01-06T11:13:50;100266.75;;;5.17;100.00
9141;BME280;46330;50.822;7.126;2024-01-06T11:16:35;100271.09;;;5.12;100.00
9141;BME280;46330;50.822;7.126;2024-01-06T11:19:41;100266.81;;;5.04;100.00
9141;BME280;46330;50.822;7.126;2024-01-06T11:22:24;100272.00;;;4.95;100.00
9141;BME280;46330;50.822;7.126;2024-01-06T11:24:54;100266.81;;;4.98;100.00
9141;BME280;46330;50.822;7.126;2024-01-06T11:27:24;100272.84;;;4.92;100.00
9141;BME280;46330;50.822;7.126;2024-01-06T11:29:56;100269.41;;;4.98;100.00
9141;BME280;46330;50.822;7.126;2024-01-06T11:32:27;100263.34;;;5.02;100.00
9141;BME280;46330;50.822;7.126;2024-01-06T11:35:05;100278.91;;;4.96;100.00
9141;BME280;46330;50.822;7.126;2024-01-06T11:37:37;100269.38;;;5.05;100.00
9141;BME280;46330;50.822;7.126;2024-01-06T11:40:23;100266.75;;;5.19;100.00
9141;BME280;46330;50.822;7.126;2024-01-06T11:43:00;100262.41;;;5.18;100.00
9141;BME280;46330;50.822;7.126;2024-01-06T11:45:29;100262.44;;;5.16;100.00
9141;BME280;46330;50.822;7.126;2024-01-06T11:48:00;100261.56;;;5.17;100.00
9141;BME280;46330;50.822;7.126;2024-01-06T11:50:30;100256.38;;;5.11;100.00
9141;BME280;46330;50.822;7.126;2024-01-06T11:52:59;100254.66;;;5.12;100.00
9141;BME280;46330;50.822;7.126;2024-01-06T11:55:27;100265.91;;;5.17;100.00
9141;BME280;46330;50.822;7.126;2024-01-06T11:57:59;100263.28;;;5.23;100.00
9141;BME280;46330;50.822;7.126;2024-01-06T12:00:29;100262.38;;;5.27;100.00
9141;BME280;46330;50.822;7.126;2024-01-06T12:02:59;100261.56;;;5.19;100.00
9141;BME280;46330;50.822;7.126;2024-01-06T12:05:28;100271.09;;;5.12;100.00
9141;BME280;46330;50.822;7.126;2024-01-06T12:07:57;100265.09;;;4.97;100.00
9141;BME280;46330;50.822;7.126;2024-01-06T12:10:27;100271.13;;;5.03;100.00
9141;BME280;46330;50.822;7.126;2024-01-06T12:12:58;100273.72;;;5.00;100.00
9141;BME280;46330;50.822;7.126;2024-01-06T12:15:28;100275.44;;;5.04;100.00
9141;BME280;46330;50.822;7.126;2024-01-06T12:17:56;100267.59;;;5.18;100.00
9141;BME280;46330;50.822;7.126;2024-01-06T12:20:27;100270.22;;;5.13;100.00
9141;BME280;46330;50.822;7.126;2024-01-06T12:22:56;100257.28;;;5.13;100.00
9141;BME280;46330;50.822;7.126;2024-01-06T12:25:25;100269.34;;;5.17;100.00
9141;BME280;46330;50.822;7.126;2024-01-06T12:27:55;100276.25;;;5.23;100.00
9141;BME280;46330;50.822;7.126;2024-01-06T12:30:23;100271.03;;;5.29;100.00
9141;BME280;46330;50.822;7.126;2024-01-06T12:32:52;100273.59;;;5.35;100.00
9141;BME280;46330;50.822;7.126;2024-01-06T12:35:21;100272.75;;;5.24;100.00
9141;BME280;46330;50.822;7.126;2024-01-06T12:37:51;100278.81;;;5.27;100.00
9141;BME280;46330;50.822;7.126;2024-01-06T12:40:19;100282.31;;;5.19;100.00
9141;BME280;46330;50.822;7.126;2024-01-06T12:42:48;100275.38;;;5.18;100.00
9141;BME280;46330;50.822;7.126;2024-01-06T12:45:16;100286.63;;;5.15;100.00
9141;BME280;46330;50.822;7.126;2024-01-06T12:47:44;100281.47;;;5.06;100.00
9141;BME280;46330;50.822;7.126;2024-01-06T12:50:13;100283.22;;;5.03;100.00
9141;BME280;46330;50.822;7.126;2024-01-06T12:52:41;100282.34;;;4.99;100.00
9141;BME280;46330;50.822;7.126;2024-01-06T12:55:10;100283.22;;;4.86;100.00
9141;BME280;46330;50.822;7.126;2024-01-06T12:57:39;100286.69;;;4.83;100.00
9141;BME280;46330;50.822;7.126;2024-01-06T13:00:08;100275.47;;;4.84;100.00
9141;BME280;46330;50.822;7.126;2024-01-06T13:02:39;100287.59;;;4.75;100.00
9141;BME280;46330;50.822;7.126;2024-01-06T13:05:07;100288.47;;;4.72;100.00
9141;BME280;46330;50.822;7.126;2024-01-06T13:07:36;100291.91;;;4.71;100.00
9141;BME280;46330;50.822;7.126;2024-01-06T13:10:05;100290.19;;;4.57;100.00
9141;BME280;46330;50.822;7.126;2024-01-06T13:12:34;100286.75;;;4.46;100.00